sensor_id;sensor_type;location;lat;lon;timestamp;P1;durP1;ratioP1;P2;durP2;ratioP2
4057;SDS011;2044;48.692;9.020;2023-03-20T00:00:22;6.93;;;5.33;;
4057;SDS011;2044;48.692;9.020;2023-03-20T00:02:52;6.97;;;5.17;;
4057;SDS011;2044;48.692;9.020;2023-03-20T00:05:20;7.70;;;5.23;;
4057;SDS011;2044;48.692;9.020;2023-03-20T00:07:50;5.60;;;5.00;;
4057;SDS011;2044;48.692;9.020;2023-03-20T00:10:17;6.30;;;5.13;;
4057;SDS011;2044;48.692;9.020;2023-03-20T00:12:45;8.07;;;5.50;;
4057;SDS011;2044;48.692;9.020;2023-03-20T00:15:23;5.00;;;4.20;;
4057;SDS011;2044;48.692;9.020;2023-03-20T00:17:53;6.47;;;5.40;;
4057;SDS011;2044;48.692;9.020;2023-03-20T00:20:21;5.30;;;3.63;;
4057;SDS011;2044;48.692;9.020;2023-03-20T00:22:49;4.27;;;3.83;;
4057;SDS011;2044;48.692;9.020;2023-03-20T00:25:17;5.53;;;4.00;;
4057;SDS011;2044;48.692;9.020;2023-03-20T00:27:45;5.03;;;4.07;;
4057;SDS011;2044;48.692;9.020;2023-03-20T00:30:15;4.97;;;3.57;;
4057;SDS011;2044;48.692;9.020;2023-03-20T00:32:45;6.93;;;3.73;;
4057;SDS011;2044;48.692;9.020;2023-03-20T00:35:19;4.40;;;3.40;;
4057;SDS011;2044;48.692;9.020;2023-03-20T00:37:49;4.87;;;3.40;;
4057;SDS011;2044;48.692;9.020;2023-03-20T00:40:17;5.40;;;3.20;;
4057;SDS011;2044;48.692;9.020;2023-03-20T00:42:44;3.03;;;2.73;;
4057;SDS011;2044;48.692;9.020;2023-03-20T00:45:14;3.53;;;2.70;;
4057;SDS011;2044;48.692;9.020;2023-03-20T00:47:43;3.07;;;2.50;;
4057;SDS011;2044;48.692;9.020;2023-03-20T00:50:14;2.70;;;2.50;;
4057;SDS011;2044;48.692;9.020;2023-03-20T00:52:42;3.23;;;1.97;;
4057;SDS011;2044;48.692;9.020;2023-03-20T00:55:10;4.43;;;2.00;;
4057;SDS011;2044;48.692;9.020;2023-03-20T00:57:38;3.43;;;2.57;;
4057;SDS011;2044;48.692;9.020;2023-03-20T01:00:12;3.33;;;2.50;;
4057;SDS011;2044;48.692;9.020;2023-03-20T01:02:48;4.10;;;2.60;;
4057;SDS011;2044;48.692;9.020;2023-03-20T01:05:16;3.17;;;2.30;;
4057;SDS011;2044;48.692;9.020;2023-03-20T01:07:43;2.60;;;2.30;;
4057;SDS011;2044;48.692;9.020;2023-03-20T01:10:12;2.50;;;2.20;;
4057;SDS011;2044;48.692;9.020;2023-03-20T01:12:39;2.83;;;2.10;;
4057;SDS011;2044;48.692;9.020;2023-03-20T01:15:14;3.27;;;2.00;;
4057;SDS011;2044;48.692;9.020;2023-03-20T01:17:43;2.30;;;2.10;;
4057;SDS011;2044;48.692;9.020;2023-03-20T01:20:13;2.20;;;1.60;;
4057;SDS011;2044;48.692;9.020;2023-03-20T01:22:41;1.87;;;1.40;;
4057;SDS011;2044;48.692;9.020;2023-03-20T01:25:08;2.10;;;1.90;;
4057;SDS011;2044;48.692;9.020;2023-03-20T01:27:36;1.80;;;1.60;;
4057;SDS011;2044;48.692;9.020;2023-03-20T01:30:05;2.43;;;1.57;;
4057;SDS011;2044;48.692;9.020;2023-03-20T01:32:41;3.50;;;1.87;;
4057;SDS011;2044;48.692;9.020;2023-03-20T01:35:10;2.90;;;1.90;;
4057;SDS011;2044;48.692;9.020;2023-03-20T01:37:38;1.50;;;1.40;;
4057;SDS011;2044;48.692;9.020;2023-03-20T01:40:08;2.50;;;1.93;;
4057;SDS011;2044;48.692;9.020;2023-03-20T01:42:42;2.90;;;1.87;;
4057;SDS011;2044;48.692;9.020;2023-03-20T01:45:12;4.40;;;1.80;;
4057;SDS011;2044;48.692;9.020;2023-03-20T01:47:42;2.00;;;1.50;;
4057;SDS011;2044;48.692;9.020;2023-03-20T01:50:17;1.53;;;1.43;;
4057;SDS011;2044;48.692;9.020;2023-03-20T01:52:54;1.40;;;1.10;;
4057;SDS011;2044;48.692;9.020;2023-03-20T01:55:26;1.63;;;1.37;;
4057;SDS011;2044;48.692;9.020;2023-03-20T01:57:56;0.90;;;0.83;;
4057;SDS011;2044;48.692;9.020;2023-03-20T02:00:27;0.90;;;0.90;;
4057;SDS011;2044;48.692;9.020;2023-03-20T02:02:54;0.87;;;0.83;;
4057;SDS011;2044;48.692;9.020;2023-03-20T02:05:22;0.90;;;0.90;;
4057;SDS011;2044;48.692;9.020;2023-03-20T02:07:51;2.30;;;0.70;;
4057;SDS011;2044;48.692;9.020;2023-03-20T02:10:23;1.00;;;0.87;;
4057;SDS011;2044;48.692;9.020;2023-03-20T02:12:50;1.93;;;0.80;;
4057;SDS011;2044;48.692;9.020;2023-03-20T02:15:18;0.80;;;0.80;;
4057;SDS011;2044;48.692;9.020;2023-03-20T02:17:45;0.97;;;0.87;;
4057;SDS011;2044;48.692;9.020;2023-03-20T02:20:14;0.90;;;0.90;;
4057;SDS011;2044;48.692;9.020;2023-03-20T02:22:59;0.80;;;0.70;;
4057;SDS011;2044;48.692;9.020;2023-03-20T02:28:55;0.90;;;0.77;;
4057;SDS011;2044;48.692;9.020;2023-03-20T02:34:47;0.83;;;0.83;;
4057;SDS011;2044;48.692;9.020;2023-03-20T02:37:38;1.10;;;1.00;;
4057;SDS011;2044;48.692;9.020;2023-03-20T02:40:15;0.93;;;0.87;;
4057;SDS011;2044;48.692;9.020;2023-03-20T02:42:52;1.00;;;0.87;;
4057;SDS011;2044;48.692;9.020;2023-03-20T02:45:25;1.27;;;0.90;;
4057;SDS011;2044;48.692;9.020;2023-03-20T02:47:55;1.77;;;1.00;;
4057;SDS011;2044;48.692;9.020;2023-03-20T02:50:32;1.00;;;0.90;;
4057;SDS011;2044;48.692;9.020;2023-03-20T02:53:08;1.30;;;1.00;;
4057;SDS011;2044;48.692;9.020;2023-03-20T02:55:45;2.10;;;1.00;;
4057;SDS011;2044;48.692;9.020;2023-03-20T02:58:14;1.03;;;0.97;;
4057;SDS011;2044;48.692;9.020;2023-03-20T03:00:48;1.17;;;0.87;;
4057;SDS011;2044;48.692;9.020;2023-03-20T03:03:19;0.90;;;0.90;;
4057;SDS011;2044;48.692;9.020;2023-03-20T03:05:50;1.63;;;1.30;;
4057;SDS011;2044;48.692;9.020;2023-03-20T03:08:23;3.50;;;1.10;;
4057;SDS011;2044;48.692;9.020;2023-03-20T03:10:54;1.03;;;0.80;;
4057;SDS011;2044;48.692;9.020;2023-03-20T03:13:25;0.80;;;0.80;;
4057;SDS011;2044;48.692;9.020;2023-03-20T03:15:54;1.10;;;0.90;;
4057;SDS011;2044;48.692;9.020;2023-03-20T03:18:27;1.10;;;1.00;;
4057;SDS011;2044;48.692;9.020;2023-03-20T03:20:56;0.90;;;0.77;;
4057;SDS011;2044;48.692;9.020;2023-03-20T03:23:27;1.10;;;0.80;;
4057;SDS011;2044;48.692;9.020;2023-03-20T03:25:55;1.00;;;0.90;;
4057;SDS011;2044;48.692;9.020;2023-03-20T03:28:26;1.00;;;0.80;;
4057;SDS011;2044;48.692;9.020;2023-03-20T03:31:01;1.73;;;1.07;;
4057;SDS011;2044;48.692;9.020;2023-03-20T03:33:30;1.30;;;1.00;;
4057;SDS011;2044;48.692;9.020;2023-03-20T03:35:59;2.27;;;0.90;;
4057;SDS011;2044;48.692;9.020;2023-03-20T03:38:36;1.27;;;1.17;;
4057;SDS011;2044;48.692;9.020;2023-03-20T03:41:16;1.10;;;1.00;;
4057;SDS011;2044;48.692;9.020;2023-03-20T03:43:49;0.80;;;0.80;;
4057;SDS011;2044;48.692;9.020;2023-03-20T03:46:23;1.00;;;0.90;;
4057;SDS011;2044;48.692;9.020;2023-03-20T03:48:55;0.80;;;0.80;;
4057;SDS011;2044;48.692;9.020;2023-03-20T03:51:24;2.13;;;1.00;;
4057;SDS011;2044;48.692;9.020;2023-03-20T03:53:56;1.40;;;0.93;;
4057;SDS011;2044;48.692;9.020;2023-03-20T03:56:25;0.90;;;0.77;;
4057;SDS011;2044;48.692;9.020;2023-03-20T03:58:55;0.80;;;0.80;;
4057;SDS011;2044;48.692;9.020;2023-03-20T04:01:25;1.30;;;0.73;;
4057;SDS011;2044;48.692;9.020;2023-03-20T04:03:54;0.93;;;0.80;;
4057;SDS011;2044;48.692;9.020;2023-03-20T04:06:25;1.50;;;0.80;;
4057;SDS011;2044;48.692;9.020;2023-03-20T04:08:53;1.30;;;0.80;;
4057;SDS011;2044;48.692;9.020;2023-03-20T04:11:21;1.00;;;0.90;;
4057;SDS011;2044;48.692;9.020;2023-03-20T04:13:50;1.37;;;1.00;;
4057;SDS011;2044;48.692;9.020;2023-03-20T04:16:18;1.10;;;1.00;;
4057;SDS011;2044;48.692;9.020;2023-03-20T04:18:46;1.00;;;0.90;;
4057;SDS011;2044;48.692;9.020;2023-03-20T04:21:13;1.10;;;0.90;;
4057;SDS011;2044;48.692;9.020;2023-03-20T04:23:40;1.00;;;0.90;;
4057;SDS011;2044;48.692;9.020;2023-03-20T04:26:08;1.03;;;0.90;;
4057;SDS011;2044;48.692;9.020;2023-03-20T04:28:35;2.73;;;0.80;;
4057;SDS011;2044;48.692;9.020;2023-03-20T04:31:02;1.67;;;1.03;;
4057;SDS011;2044;48.692;9.020;2023-03-20T04:33:29;1.67;;;1.03;;
4057;SDS011;2044;48.692;9.020;2023-03-20T04:35:56;1.30;;;0.80;;
4057;SDS011;2044;48.692;9.020;2023-03-20T04:38:23;0.97;;;0.90;;
4057;SDS011;2044;48.692;9.020;2023-03-20T04:40:50;1.73;;;1.00;;
4057;SDS011;2044;48.692;9.020;2023-03-20T04:43:18;1.13;;;1.03;;
4057;SDS011;2044;48.692;9.020;2023-03-20T04:45:44;2.00;;;1.80;;
4057;SDS011;2044;48.692;9.020;2023-03-20T04:48:11;1.60;;;1.30;;
4057;SDS011;2044;48.692;9.020;2023-03-20T04:50:38;1.40;;;1.30;;
4057;SDS011;2044;48.692;9.020;2023-03-20T04:53:05;1.60;;;1.17;;
4057;SDS011;2044;48.692;9.020;2023-03-20T04:55:32;1.50;;;1.30;;
4057;SDS011;2044;48.692;9.020;2023-03-20T04:57:58;1.30;;;1.20;;
4057;SDS011;2044;48.692;9.020;2023-03-20T05:00:26;2.30;;;1.60;;
4057;SDS011;2044;48.692;9.020;2023-03-20T05:02:53;2.17;;;1.37;;
4057;SDS011;2044;48.692;9.020;2023-03-20T05:05:20;2.27;;;2.07;;
4057;SDS011;2044;48.692;9.020;2023-03-20T05:07:47;2.37;;;1.47;;
4057;SDS011;2044;48.692;9.020;2023-03-20T05:10:14;1.63;;;1.37;;
4057;SDS011;2044;48.692;9.020;2023-03-20T05:12:41;1.30;;;1.20;;
4057;SDS011;2044;48.692;9.020;2023-03-20T05:15:08;1.57;;;1.30;;
4057;SDS011;2044;48.692;9.020;2023-03-20T05:17:36;1.33;;;1.00;;
4057;SDS011;2044;48.692;9.020;2023-03-20T05:20:03;1.13;;;1.03;;
4057;SDS011;2044;48.692;9.020;2023-03-20T05:22:31;1.43;;;1.17;;
4057;SDS011;2044;48.692;9.020;2023-03-20T05:24:57;0.90;;;0.80;;
4057;SDS011;2044;48.692;9.020;2023-03-20T05:27:25;1.00;;;0.90;;
4057;SDS011;2044;48.692;9.020;2023-03-20T05:29:51;1.00;;;0.90;;
4057;SDS011;2044;48.692;9.020;2023-03-20T05:32:18;1.80;;;1.13;;
4057;SDS011;2044;48.692;9.020;2023-03-20T05:34:46;1.20;;;0.90;;
4057;SDS011;2044;48.692;9.020;2023-03-20T05:37:13;1.00;;;0.90;;
4057;SDS011;2044;48.692;9.020;2023-03-20T05:39:39;2.37;;;1.17;;
4057;SDS011;2044;48.692;9.020;2023-03-20T05:42:06;1.50;;;1.03;;
4057;SDS011;2044;48.692;9.020;2023-03-20T05:44:33;1.10;;;1.00;;
4057;SDS011;2044;48.692;9.020;2023-03-20T05:47:00;1.20;;;1.00;;
4057;SDS011;2044;48.692;9.020;2023-03-20T05:49:27;1.97;;;1.10;;
4057;SDS011;2044;48.692;9.020;2023-03-20T05:51:55;1.40;;;1.00;;
4057;SDS011;2044;48.692;9.020;2023-03-20T05:54:22;2.43;;;0.90;;
4057;SDS011;2044;48.692;9.020;2023-03-20T05:56:48;1.47;;;1.13;;
4057;SDS011;2044;48.692;9.020;2023-03-20T05:59:18;1.63;;;1.07;;
4057;SDS011;2044;48.692;9.020;2023-03-20T06:01:45;1.17;;;1.00;;
4057;SDS011;2044;48.692;9.020;2023-03-20T06:04:11;2.13;;;0.90;;
4057;SDS011;2044;48.692;9.020;2023-03-20T06:06:38;3.20;;;1.40;;
4057;SDS011;2044;48.692;9.020;2023-03-20T06:09:07;2.37;;;1.30;;
4057;SDS011;2044;48.692;9.020;2023-03-20T06:11:33;1.63;;;1.20;;
4057;SDS011;2044;48.692;9.020;2023-03-20T06:14:00;2.40;;;1.33;;
4057;SDS011;2044;48.692;9.020;2023-03-20T06:16:27;2.20;;;1.10;;
4057;SDS011;2044;48.692;9.020;2023-03-20T06:18:53;1.30;;;1.20;;
4057;SDS011;2044;48.692;9.020;2023-03-20T06:21:20;2.23;;;1.50;;
4057;SDS011;2044;48.692;9.020;2023-03-20T06:23:47;3.00;;;1.57;;
4057;SDS011;2044;48.692;9.020;2023-03-20T06:26:15;1.20;;;1.10;;
4057;SDS011;2044;48.692;9.020;2023-03-20T06:28:41;1.70;;;1.53;;
4057;SDS011;2044;48.692;9.020;2023-03-20T06:31:08;1.27;;;1.17;;
4057;SDS011;2044;48.692;9.020;2023-03-20T06:33:35;1.70;;;1.60;;
4057;SDS011;2044;48.692;9.020;2023-03-20T06:36:04;1.43;;;1.33;;
4057;SDS011;2044;48.692;9.020;2023-03-20T06:38:33;1.73;;;1.63;;
4057;SDS011;2044;48.692;9.020;2023-03-20T06:41:00;1.33;;;1.23;;
4057;SDS011;2044;48.692;9.020;2023-03-20T06:43:28;1.53;;;1.40;;
4057;SDS011;2044;48.692;9.020;2023-03-20T06:45:54;2.00;;;1.50;;
4057;SDS011;2044;48.692;9.020;2023-03-20T06:48:21;1.37;;;1.27;;
4057;SDS011;2044;48.692;9.020;2023-03-20T06:50:48;1.50;;;1.40;;
4057;SDS011;2044;48.692;9.020;2023-03-20T06:53:16;1.73;;;1.63;;
4057;SDS011;2044;48.692;9.020;2023-03-20T06:55:45;2.13;;;1.93;;
4057;SDS011;2044;48.692;9.020;2023-03-20T06:58:12;2.60;;;2.20;;
4057;SDS011;2044;48.692;9.020;2023-03-20T07:00:40;2.23;;;1.97;;
4057;SDS011;2044;48.692;9.020;2023-03-20T07:03:07;1.70;;;1.60;;
4057;SDS011;2044;48.692;9.020;2023-03-20T07:05:34;2.03;;;1.93;;
4057;SDS011;2044;48.692;9.020;2023-03-20T07:08:02;1.90;;;1.80;;
4057;SDS011;2044;48.692;9.020;2023-03-20T07:10:29;2.07;;;1.97;;
4057;SDS011;2044;48.692;9.020;2023-03-20T07:12:55;2.20;;;2.10;;
4057;SDS011;2044;48.692;9.020;2023-03-20T07:15:22;2.67;;;2.37;;
4057;SDS011;2044;48.692;9.020;2023-03-20T07:17:50;2.67;;;2.57;;
4057;SDS011;2044;48.692;9.020;2023-03-20T07:20:18;2.10;;;2.00;;
4057;SDS011;2044;48.692;9.020;2023-03-20T07:22:44;2.00;;;1.77;;
4057;SDS011;2044;48.692;9.020;2023-03-20T07:25:13;2.13;;;1.97;;
4057;SDS011;2044;48.692;9.020;2023-03-20T07:27:40;1.80;;;1.70;;
4057;SDS011;2044;48.692;9.020;2023-03-20T07:30:11;1.73;;;1.63;;
4057;SDS011;2044;48.692;9.020;2023-03-20T07:32:38;1.70;;;1.60;;
4057;SDS011;2044;48.692;9.020;2023-03-20T07:35:06;1.93;;;1.60;;
4057;SDS011;2044;48.692;9.020;2023-03-20T07:37:33;5.43;;;2.63;;
4057;SDS011;2044;48.692;9.020;2023-03-20T07:40:00;1.60;;;1.50;;
4057;SDS011;2044;48.692;9.020;2023-03-20T07:42:27;5.47;;;1.87;;
4057;SDS011;2044;48.692;9.020;2023-03-20T07:44:53;2.07;;;1.87;;
4057;SDS011;2044;48.692;9.020;2023-03-20T07:47:20;1.63;;;1.53;;
4057;SDS011;2044;48.692;9.020;2023-03-20T07:49:47;2.17;;;1.77;;
4057;SDS011;2044;48.692;9.020;2023-03-20T07:52:15;2.10;;;2.00;;
4057;SDS011;2044;48.692;9.020;2023-03-20T07:54:42;2.60;;;2.40;;
4057;SDS011;2044;48.692;9.020;2023-03-20T07:57:08;2.30;;;2.10;;
4057;SDS011;2044;48.692;9.020;2023-03-20T07:59:35;3.00;;;2.70;;
4057;SDS011;2044;48.692;9.020;2023-03-20T08:02:02;2.50;;;2.30;;
4057;SDS011;2044;48.692;9.020;2023-03-20T08:04:28;2.63;;;2.43;;
4057;SDS011;2044;48.692;9.020;2023-03-20T08:06:55;3.10;;;2.80;;
4057;SDS011;2044;48.692;9.020;2023-03-20T08:09:23;2.83;;;2.50;;
4057;SDS011;2044;48.692;9.020;2023-03-20T08:11:50;3.93;;;2.40;;
4057;SDS011;2044;48.692;9.020;2023-03-20T08:14:16;2.30;;;2.20;;
4057;SDS011;2044;48.692;9.020;2023-03-20T08:16:43;2.37;;;2.27;;
4057;SDS011;2044;48.692;9.020;2023-03-20T08:19:10;2.80;;;2.60;;
4057;SDS011;2044;48.692;9.020;2023-03-20T08:21:37;2.40;;;2.30;;
4057;SDS011;2044;48.692;9.020;2023-03-20T08:24:04;2.40;;;2.20;;
4057;SDS011;2044;48.692;9.020;2023-03-20T08:26:34;2.80;;;2.60;;
4057;SDS011;2044;48.692;9.020;2023-03-20T08:29:01;8.97;;;2.63;;
4057;SDS011;2044;48.692;9.020;2023-03-20T08:31:27;2.87;;;2.73;;
4057;SDS011;2044;48.692;9.020;2023-03-20T08:33:55;2.90;;;2.70;;
4057;SDS011;2044;48.692;9.020;2023-03-20T08:36:22;2.60;;;2.33;;
4057;SDS011;2044;48.692;9.020;2023-03-20T08:38:49;2.60;;;2.50;;
4057;SDS011;2044;48.692;9.020;2023-03-20T08:41:16;2.97;;;2.77;;
4057;SDS011;2044;48.692;9.020;2023-03-20T08:43:44;4.50;;;2.60;;
4057;SDS011;2044;48.692;9.020;2023-03-20T08:46:11;2.67;;;2.47;;
4057;SDS011;2044;48.692;9.020;2023-03-20T08:48:38;3.43;;;2.60;;
4057;SDS011;2044;48.692;9.020;2023-03-20T08:51:05;3.13;;;2.93;;
4057;SDS011;2044;48.692;9.020;2023-03-20T08:53:32;2.80;;;2.60;;
4057;SDS011;2044;48.692;9.020;2023-03-20T08:55:59;2.57;;;2.37;;
4057;SDS011;2044;48.692;9.020;2023-03-20T08:58:27;2.43;;;2.23;;
4057;SDS011;2044;48.692;9.020;2023-03-20T09:00:56;3.10;;;2.90;;
4057;SDS011;2044;48.692;9.020;2023-03-20T09:03:26;2.50;;;2.30;;
4057;SDS011;2044;48.692;9.020;2023-03-20T09:05:53;3.07;;;2.80;;
4057;SDS011;2044;48.692;9.020;2023-03-20T09:08:20;3.83;;;3.53;;
4057;SDS011;2044;48.692;9.020;2023-03-20T09:10:46;3.57;;;3.37;;
4057;SDS011;2044;48.692;9.020;2023-03-20T09:13:13;3.47;;;3.20;;
4057;SDS011;2044;48.692;9.020;2023-03-20T09:15:40;3.40;;;3.20;;
4057;SDS011;2044;48.692;9.020;2023-03-20T09:18:09;3.80;;;3.53;;
4057;SDS011;2044;48.692;9.020;2023-03-20T09:20:35;3.97;;;3.77;;
4057;SDS011;2044;48.692;9.020;2023-03-20T09:23:02;3.40;;;3.17;;
4057;SDS011;2044;48.692;9.020;2023-03-20T09:25:29;3.87;;;3.57;;
4057;SDS011;2044;48.692;9.020;2023-03-20T09:27:55;3.87;;;3.50;;
4057;SDS011;2044;48.692;9.020;2023-03-20T09:30:22;4.33;;;4.03;;
4057;SDS011;2044;48.692;9.020;2023-03-20T09:32:50;4.03;;;3.80;;
4057;SDS011;2044;48.692;9.020;2023-03-20T09:35:18;3.97;;;3.67;;
4057;SDS011;2044;48.692;9.020;2023-03-20T09:37:45;4.27;;;3.97;;
4057;SDS011;2044;48.692;9.020;2023-03-20T09:40:17;3.90;;;3.70;;
4057;SDS011;2044;48.692;9.020;2023-03-20T09:42:50;4.20;;;3.90;;
4057;SDS011;2044;48.692;9.020;2023-03-20T09:45:21;4.13;;;3.73;;
4057;SDS011;2044;48.692;9.020;2023-03-20T09:48:00;4.03;;;3.07;;
4057;SDS011;2044;48.692;9.020;2023-03-20T09:50:33;3.20;;;3.00;;
4057;SDS011;2044;48.692;9.020;2023-03-20T09:53:03;4.00;;;3.70;;
4057;SDS011;2044;48.692;9.020;2023-03-20T09:55:35;3.70;;;3.40;;
4057;SDS011;2044;48.692;9.020;2023-03-20T09:58:06;4.30;;;4.00;;
4057;SDS011;2044;48.692;9.020;2023-03-20T10:00:38;3.90;;;3.70;;
4057;SDS011;2044;48.692;9.020;2023-03-20T10:03:11;3.50;;;3.30;;
4057;SDS011;2044;48.692;9.020;2023-03-20T10:05:45;3.70;;;3.43;;
4057;SDS011;2044;48.692;9.020;2023-03-20T10:08:15;4.60;;;4.30;;
4057;SDS011;2044;48.692;9.020;2023-03-20T10:10:48;4.00;;;3.80;;
4057;SDS011;2044;48.692;9.020;2023-03-20T10:13:29;4.40;;;4.20;;
4057;SDS011;2044;48.692;9.020;2023-03-20T10:16:06;5.00;;;4.80;;
4057;SDS011;2044;48.692;9.020;2023-03-20T10:18:42;5.00;;;4.80;;
4057;SDS011;2044;48.692;9.020;2023-03-20T10:21:15;5.47;;;5.07;;
4057;SDS011;2044;48.692;9.020;2023-03-20T10:23:48;4.43;;;4.20;;
4057;SDS011;2044;48.692;9.020;2023-03-20T10:26:25;4.00;;;3.90;;
4057;SDS011;2044;48.692;9.020;2023-03-20T10:28:54;4.03;;;3.83;;
4057;SDS011;2044;48.692;9.020;2023-03-20T10:31:28;3.93;;;3.77;;
4057;SDS011;2044;48.692;9.020;2023-03-20T10:34:19;3.40;;;3.30;;
4057;SDS011;2044;48.692;9.020;2023-03-20T10:37:07;3.50;;;3.30;;
4057;SDS011;2044;48.692;9.020;2023-03-20T10:39:47;4.00;;;3.80;;
4057;SDS011;2044;48.692;9.020;2023-03-20T10:42:19;4.03;;;3.83;;
4057;SDS011;2044;48.692;9.020;2023-03-20T10:44:50;4.20;;;4.00;;
4057;SDS011;2044;48.692;9.020;2023-03-20T10:47:21;3.97;;;3.77;;
4057;SDS011;2044;48.692;9.020;2023-03-20T10:49:53;4.17;;;3.97;;
4057;SDS011;2044;48.692;9.020;2023-03-20T10:52:25;6.47;;;4.10;;
4057;SDS011;2044;48.692;9.020;2023-03-20T10:54:54;4.00;;;3.60;;
4057;SDS011;2044;48.692;9.020;2023-03-20T10:57:23;4.03;;;3.80;;
4057;SDS011;2044;48.692;9.020;2023-03-20T10:59:52;4.17;;;3.97;;
4057;SDS011;2044;48.692;9.020;2023-03-20T11:02:22;4.00;;;3.90;;
4057;SDS011;2044;48.692;9.020;2023-03-20T11:04:52;5.33;;;5.03;;
4057;SDS011;2044;48.692;9.020;2023-03-20T11:07:21;3.90;;;3.70;;
4057;SDS011;2044;48.692;9.020;2023-03-20T11:12:41;3.80;;;3.60;;
4057;SDS011;2044;48.692;9.020;2023-03-20T11:15:19;3.70;;;3.50;;
4057;SDS011;2044;48.692;9.020;2023-03-20T11:17:52;3.27;;;3.17;;
4057;SDS011;2044;48.692;9.020;2023-03-20T11:20:20;4.90;;;4.60;;
4057;SDS011;2044;48.692;9.020;2023-03-20T11:22:48;3.50;;;3.40;;
4057;SDS011;2044;48.692;9.020;2023-03-20T11:25:22;4.20;;;4.00;;
4057;SDS011;2044;48.692;9.020;2023-03-20T11:27:53;3.90;;;3.80;;
4057;SDS011;2044;48.692;9.020;2023-03-20T11:30:21;4.60;;;4.40;;
4057;SDS011;2044;48.692;9.020;2023-03-20T11:32:48;4.70;;;4.50;;
4057;SDS011;2044;48.692;9.020;2023-03-20T11:35:20;5.10;;;4.87;;
4057;SDS011;2044;48.692;9.020;2023-03-20T11:38:08;5.67;;;5.47;;
4057;SDS011;2044;48.692;9.020;2023-03-20T11:40:38;6.00;;;5.80;;
4057;SDS011;2044;48.692;9.020;2023-03-20T11:43:08;6.97;;;6.47;;
4057;SDS011;2044;48.692;9.020;2023-03-20T11:45:38;7.40;;;7.10;;
4057;SDS011;2044;48.692;9.020;2023-03-20T11:48:12;6.93;;;6.63;;
4057;SDS011;2044;48.692;9.020;2023-03-20T11:50:42;7.43;;;7.03;;
4057;SDS011;2044;48.692;9.020;2023-03-20T11:53:27;7.40;;;7.10;;
4057;SDS011;2044;48.692;9.020;2023-03-20T11:55:58;7.80;;;7.50;;
4057;SDS011;2044;48.692;9.020;2023-03-20T11:58:28;7.80;;;7.30;;
4057;SDS011;2044;48.692;9.020;2023-03-20T12:00:55;7.80;;;7.40;;
4057;SDS011;2044;48.692;9.020;2023-03-20T12:03:33;13.60;;;7.70;;
4057;SDS011;2044;48.692;9.020;2023-03-20T12:06:05;7.53;;;7.20;;
4057;SDS011;2044;48.692;9.020;2023-03-20T12:08:34;8.00;;;7.70;;
4057;SDS011;2044;48.692;9.020;2023-03-20T12:11:05;8.07;;;7.77;;
4057;SDS011;2044;48.692;9.020;2023-03-20T12:13:42;7.63;;;7.33;;
4057;SDS011;2044;48.692;9.020;2023-03-20T12:16:14;8.10;;;7.80;;
4057;SDS011;2044;48.692;9.020;2023-03-20T12:18:44;8.40;;;8.00;;
4057;SDS011;2044;48.692;9.020;2023-03-20T12:21:14;7.90;;;7.60;;
4057;SDS011;2044;48.692;9.020;2023-03-20T12:23:48;7.77;;;7.37;;
4057;SDS011;2044;48.692;9.020;2023-03-20T12:26:19;7.50;;;7.17;;
4057;SDS011;2044;48.692;9.020;2023-03-20T12:28:53;8.10;;;7.80;;
4057;SDS011;2044;48.692;9.020;2023-03-20T12:31:24;7.20;;;6.90;;
4057;SDS011;2044;48.692;9.020;2023-03-20T12:33:56;6.63;;;6.40;;
4057;SDS011;2044;48.692;9.020;2023-03-20T12:36:28;6.70;;;6.40;;
4057;SDS011;2044;48.692;9.020;2023-03-20T12:38:59;8.10;;;7.50;;
4057;SDS011;2044;48.692;9.020;2023-03-20T12:41:29;7.57;;;6.97;;
4057;SDS011;2044;48.692;9.020;2023-03-20T12:44:11;6.60;;;6.30;;
4057;SDS011;2044;48.692;9.020;2023-03-20T12:46:46;7.00;;;6.70;;
4057;SDS011;2044;48.692;9.020;2023-03-20T12:49:23;7.40;;;7.00;;
4057;SDS011;2044;48.692;9.020;2023-03-20T12:52:03;7.37;;;7.07;;
4057;SDS011;2044;48.692;9.020;2023-03-20T12:54:50;7.17;;;6.70;;
4057;SDS011;2044;48.692;9.020;2023-03-20T12:57:31;7.40;;;7.00;;
4057;SDS011;2044;48.692;9.020;2023-03-20T13:00:07;7.67;;;7.27;;
4057;SDS011;2044;48.692;9.020;2023-03-20T13:02:43;7.37;;;7.07;;
4057;SDS011;2044;48.692;9.020;2023-03-20T13:05:23;7.57;;;7.17;;
4057;SDS011;2044;48.692;9.020;2023-03-20T13:08:01;8.03;;;7.53;;
4057;SDS011;2044;48.692;9.020;2023-03-20T13:10:51;7.60;;;7.20;;
4057;SDS011;2044;48.692;9.020;2023-03-20T13:13:26;7.60;;;7.30;;
4057;SDS011;2044;48.692;9.020;2023-03-20T13:16:08;7.57;;;7.27;;
4057;SDS011;2044;48.692;9.020;2023-03-20T13:18:48;7.20;;;7.00;;
4057;SDS011;2044;48.692;9.020;2023-03-20T13:21:22;7.47;;;7.17;;
4057;SDS011;2044;48.692;9.020;2023-03-20T13:23:54;7.57;;;6.97;;
4057;SDS011;2044;48.692;9.020;2023-03-20T13:26:30;7.07;;;6.67;;
4057;SDS011;2044;48.692;9.020;2023-03-20T13:29:04;7.17;;;6.97;;
4057;SDS011;2044;48.692;9.020;2023-03-20T13:31:41;7.23;;;7.03;;
4057;SDS011;2044;48.692;9.020;2023-03-20T13:34:24;7.00;;;6.80;;
4057;SDS011;2044;48.692;9.020;2023-03-20T13:37:02;7.47;;;7.17;;
4057;SDS011;2044;48.692;9.020;2023-03-20T13:39:36;7.00;;;6.80;;
4057;SDS011;2044;48.692;9.020;2023-03-20T13:42:10;7.60;;;7.30;;
4057;SDS011;2044;48.692;9.020;2023-03-20T13:44:40;7.53;;;7.23;;
4057;SDS011;2044;48.692;9.020;2023-03-20T13:47:09;7.00;;;6.70;;
4057;SDS011;2044;48.692;9.020;2023-03-20T13:49:40;7.50;;;7.10;;
4057;SDS011;2044;48.692;9.020;2023-03-20T13:52:14;7.30;;;7.00;;
4057;SDS011;2044;48.692;9.020;2023-03-20T13:54:49;7.13;;;6.90;;
4057;SDS011;2044;48.692;9.020;2023-03-20T13:57:30;7.40;;;7.20;;
4057;SDS011;2044;48.692;9.020;2023-03-20T14:00:16;7.20;;;7.00;;
4057;SDS011;2044;48.692;9.020;2023-03-20T14:02:59;8.17;;;7.67;;
4057;SDS011;2044;48.692;9.020;2023-03-20T14:05:38;7.77;;;7.37;;
4057;SDS011;2044;48.692;9.020;2023-03-20T14:08:19;7.80;;;7.50;;
4057;SDS011;2044;48.692;9.020;2023-03-20T14:11:04;7.77;;;7.47;;
4057;SDS011;2044;48.692;9.020;2023-03-20T14:13:38;8.20;;;7.90;;
4057;SDS011;2044;48.692;9.020;2023-03-20T14:16:09;8.60;;;8.20;;
4057;SDS011;2044;48.692;9.020;2023-03-20T14:18:40;8.10;;;7.80;;
4057;SDS011;2044;48.692;9.020;2023-03-20T14:21:10;8.07;;;7.77;;
4057;SDS011;2044;48.692;9.020;2023-03-20T14:23:38;7.60;;;7.30;;
4057;SDS011;2044;48.692;9.020;2023-03-20T14:26:08;7.60;;;7.30;;
4057;SDS011;2044;48.692;9.020;2023-03-20T14:28:45;7.60;;;7.20;;
4057;SDS011;2044;48.692;9.020;2023-03-20T14:31:23;7.73;;;7.43;;
4057;SDS011;2044;48.692;9.020;2023-03-20T14:33:56;7.80;;;7.50;;
4057;SDS011;2044;48.692;9.020;2023-03-20T14:36:26;7.87;;;7.57;;
4057;SDS011;2044;48.692;9.020;2023-03-20T14:38:57;7.93;;;7.63;;
4057;SDS011;2044;48.692;9.020;2023-03-20T14:41:39;8.50;;;8.10;;
4057;SDS011;2044;48.692;9.020;2023-03-20T14:44:23;8.70;;;8.30;;
4057;SDS011;2044;48.692;9.020;2023-03-20T14:47:00;8.37;;;8.07;;
4057;SDS011;2044;48.692;9.020;2023-03-20T14:49:45;7.70;;;7.50;;
4057;SDS011;2044;48.692;9.020;2023-03-20T14:52:32;8.10;;;7.80;;
4057;SDS011;2044;48.692;9.020;2023-03-20T14:55:26;7.73;;;7.53;;
4057;SDS011;2044;48.692;9.020;2023-03-20T14:57:55;8.17;;;7.70;;
4057;SDS011;2044;48.692;9.020;2023-03-20T15:00:24;8.43;;;7.97;;
4057;SDS011;2044;48.692;9.020;2023-03-20T15:02:57;8.20;;;7.90;;
4057;SDS011;2044;48.692;9.020;2023-03-20T15:05:32;7.70;;;7.40;;
4057;SDS011;2044;48.692;9.020;2023-03-20T15:08:02;8.03;;;7.73;;
4057;SDS011;2044;48.692;9.020;2023-03-20T15:10:32;7.77;;;7.47;;
4057;SDS011;2044;48.692;9.020;2023-03-20T15:13:03;7.10;;;6.90;;
4057;SDS011;2044;48.692;9.020;2023-03-20T15:15:32;8.30;;;7.93;;
4057;SDS011;2044;48.692;9.020;2023-03-20T15:18:03;8.53;;;8.10;;
4057;SDS011;2044;48.692;9.020;2023-03-20T15:20:34;8.23;;;7.93;;
4057;SDS011;2044;48.692;9.020;2023-03-20T15:23:01;8.70;;;8.30;;
4057;SDS011;2044;48.692;9.020;2023-03-20T15:25:30;8.80;;;8.40;;
4057;SDS011;2044;48.692;9.020;2023-03-20T15:28:00;8.20;;;7.90;;
4057;SDS011;2044;48.692;9.020;2023-03-20T15:30:30;8.90;;;8.40;;
4057;SDS011;2044;48.692;9.020;2023-03-20T15:33:01;9.60;;;9.00;;
4057;SDS011;2044;48.692;9.020;2023-03-20T15:35:28;9.80;;;9.10;;
4057;SDS011;2044;48.692;9.020;2023-03-20T15:37:56;8.57;;;8.17;;
4057;SDS011;2044;48.692;9.020;2023-03-20T15:40:30;8.60;;;8.23;;
4057;SDS011;2044;48.692;9.020;2023-03-20T15:42:58;8.30;;;7.90;;
4057;SDS011;2044;48.692;9.020;2023-03-20T15:45:30;8.10;;;7.70;;